sensor_id;sensor_type;location;lat;lon;timestamp;temperature;humidity
8408;DHT22;4241;48.452;9.216;2023-03-31T00:01:13;12.70;99.90
8408;DHT22;4241;48.452;9.216;2023-03-31T00:03:39;12.60;99.90
8408;DHT22;4241;48.452;9.216;2023-03-31T00:06:10;12.60;99.90
8408;DHT22;4241;48.452;9.216;2023-03-31T00:08:42;12.70;99.90
8408;DHT22;4241;48.452;9.216;2023-03-31T00:11:10;12.90;99.90
8408;DHT22;4241;48.452;9.216;2023-03-31T00:13:37;12.60;99.90
8408;DHT22;4241;48.452;9.216;2023-03-31T00:16:07;12.80;99.90
8408;DHT22;4241;48.452;9.216;2023-03-31T00:18:35;12.60;99.90
8408;DHT22;4241;48.452;9.216;2023-03-31T00:21:09;12.60;99.90
8408;DHT22;4241;48.452;9.216;2023-03-31T00:23:39;12.70;99.90
8408;DHT22;4241;48.452;9.216;2023-03-31T00:26:06;14.20;99.90
8408;DHT22;4241;48.452;9.216;2023-03-31T00:28:34;12.90;99.90
8408;DHT22;4241;48.452;9.216;2023-03-31T00:31:02;12.70;99.90
8408;DHT22;4241;48.452;9.216;2023-03-31T00:33:29;12.90;99.90
8408;DHT22;4241;48.452;9.216;2023-03-31T00:35:56;12.70;99.90
8408;DHT22;4241;48.452;9.216;2023-03-31T00:38:27;12.80;99.90
8408;DHT22;4241;48.452;9.216;2023-03-31T00:40:54;12.80;99.90
8408;DHT22;4241;48.452;9.216;2023-03-31T00:43:27;12.80;99.90
8408;DHT22;4241;48.452;9.216;2023-03-31T00:46:04;12.80;99.90
8408;DHT22;4241;48.452;9.216;2023-03-31T00:48:33;13.00;99.90
8408;DHT22;4241;48.452;9.216;2023-03-31T00:51:04;12.80;99.90
8408;DHT22;4241;48.452;9.216;2023-03-31T00:53:33;12.80;99.90
8408;DHT22;4241;48.452;9.216;2023-03-31T00:56:06;12.80;99.90
8408;DHT22;4241;48.452;9.216;2023-03-31T00:58:34;12.90;99.90
8408;DHT22;4241;48.452;9.216;2023-03-31T01:01:12;13.10;99.90
8408;DHT22;4241;48.452;9.216;2023-03-31T01:03:42;12.90;99.90
8408;DHT22;4241;48.452;9.216;2023-03-31T01:06:12;13.00;99.90
8408;DHT22;4241;48.452;9.216;2023-03-31T01:08:40;12.90;99.90
8408;DHT22;4241;48.452;9.216;2023-03-31T01:11:11;13.10;99.90
8408;DHT22;4241;48.452;9.216;2023-03-31T01:13:40;12.90;99.90
8408;DHT22;4241;48.452;9.216;2023-03-31T01:16:07;13.10;99.90
8408;DHT22;4241;48.452;9.216;2023-03-31T01:18:36;13.10;99.90
8408;DHT22;4241;48.452;9.216;2023-03-31T01:21:42;12.90;99.90
8408;DHT22;4241;48.452;9.216;2023-03-31T01:27:42;12.90;99.90
8408;DHT22;4241;48.452;9.216;2023-03-31T01:33:46;12.90;99.90
8408;DHT22;4241;48.452;9.216;2023-03-31T01:36:53;12.90;99.90
8408;DHT22;4241;48.452;9.216;2023-03-31T01:39:48;12.90;99.90
8408;DHT22;4241;48.452;9.216;2023-03-31T01:42:20;13.10;99.90
8408;DHT22;4241;48.452;9.216;2023-03-31T01:44:56;13.00;99.90
8408;DHT22;4241;48.452;9.216;2023-03-31T01:47:30;12.90;99.90
8408;DHT22;4241;48.452;9.216;2023-03-31T01:50:03;12.70;99.90
8408;DHT22;4241;48.452;9.216;2023-03-31T01:52:36;12.80;99.90
8408;DHT22;4241;48.452;9.216;2023-03-31T01:55:08;12.50;99.90
8408;DHT22;4241;48.452;9.216;2023-03-31T01:57:39;12.40;99.90
8408;DHT22;4241;48.452;9.216;2023-03-31T02:00:09;12.60;99.90
8408;DHT22;4241;48.452;9.216;2023-03-31T02:02:38;12.20;99.90
8408;DHT22;4241;48.452;9.216;2023-03-31T02:05:09;12.20;99.90
8408;DHT22;4241;48.452;9.216;2023-03-31T02:07:41;12.00;99.90
8408;DHT22;4241;48.452;9.216;2023-03-31T02:10:11;11.90;99.90
8408;DHT22;4241;48.452;9.216;2023-03-31T02:12:40;11.80;99.90
8408;DHT22;4241;48.452;9.216;2023-03-31T02:15:10;11.70;99.90
8408;DHT22;4241;48.452;9.216;2023-03-31T02:17:39;11.40;99.90
8408;DHT22;4241;48.452;9.216;2023-03-31T02:20:11;11.30;99.90
8408;DHT22;4241;48.452;9.216;2023-03-31T02:22:44;11.20;99.90
8408;DHT22;4241;48.452;9.216;2023-03-31T02:25:16;11.10;99.90
8408;DHT22;4241;48.452;9.216;2023-03-31T02:27:48;10.90;99.90
8408;DHT22;4241;48.452;9.216;2023-03-31T02:30:17;10.80;99.90
8408;DHT22;4241;48.452;9.216;2023-03-31T02:32:44;10.80;99.90
8408;DHT22;4241;48.452;9.216;2023-03-31T02:35:14;10.80;99.90
8408;DHT22;4241;48.452;9.216;2023-03-31T02:37:42;11.00;99.90
8408;DHT22;4241;48.452;9.216;2023-03-31T02:40:14;11.10;99.90
8408;DHT22;4241;48.452;9.216;2023-03-31T02:42:42;10.90;99.90
8408;DHT22;4241;48.452;9.216;2023-03-31T02:45:37;11.00;99.90
8408;DHT22;4241;48.452;9.216;2023-03-31T02:48:05;10.80;99.90
8408;DHT22;4241;48.452;9.216;2023-03-31T02:50:42;10.80;99.90
8408;DHT22;4241;48.452;9.216;2023-03-31T02:53:16;10.80;99.90
8408;DHT22;4241;48.452;9.216;2023-03-31T02:55:58;10.80;99.90
8408;DHT22;4241;48.452;9.216;2023-03-31T02:58:40;10.80;99.90
8408;DHT22;4241;48.452;9.216;2023-03-31T03:01:25;10.70;99.90
8408;DHT22;4241;48.452;9.216;2023-03-31T03:04:01;10.70;99.90
8408;DHT22;4241;48.452;9.216;2023-03-31T03:06:40;10.80;99.90
8408;DHT22;4241;48.452;9.216;2023-03-31T03:09:16;10.70;99.90
8408;DHT22;4241;48.452;9.216;2023-03-31T03:11:52;10.70;99.90
8408;DHT22;4241;48.452;9.216;2023-03-31T03:14:27;10.60;99.90
8408;DHT22;4241;48.452;9.216;2023-03-31T03:16:58;10.50;99.90
8408;DHT22;4241;48.452;9.216;2023-03-31T03:19:26;10.30;99.90
8408;DHT22;4241;48.452;9.216;2023-03-31T03:21:53;10.30;99.90
8408;DHT22;4241;48.452;9.216;2023-03-31T03:24:21;10.60;99.90
8408;DHT22;4241;48.452;9.216;2023-03-31T03:26:49;10.20;99.90
8408;DHT22;4241;48.452;9.216;2023-03-31T03:29:16;10.30;99.90
8408;DHT22;4241;48.452;9.216;2023-03-31T03:31:43;10.40;99.90
8408;DHT22;4241;48.452;9.216;2023-03-31T03:34:10;10.30;99.90
8408;DHT22;4241;48.452;9.216;2023-03-31T03:36:37;10.20;99.90
8408;DHT22;4241;48.452;9.216;2023-03-31T03:39:06;10.30;99.90
8408;DHT22;4241;48.452;9.216;2023-03-31T03:41:33;10.60;99.90
8408;DHT22;4241;48.452;9.216;2023-03-31T03:44:01;10.40;99.90
8408;DHT22;4241;48.452;9.216;2023-03-31T03:46:28;10.40;99.90
8408;DHT22;4241;48.452;9.216;2023-03-31T03:48:55;10.40;99.90
8408;DHT22;4241;48.452;9.216;2023-03-31T03:51:22;10.50;99.90
8408;DHT22;4241;48.452;9.216;2023-03-31T03:53:49;10.30;99.90
8408;DHT22;4241;48.452;9.216;2023-03-31T03:56:16;10.60;99.90
8408;DHT22;4241;48.452;9.216;2023-03-31T03:58:43;10.30;99.90
8408;DHT22;4241;48.452;9.216;2023-03-31T04:01:11;10.50;99.90
8408;DHT22;4241;48.452;9.216;2023-03-31T04:03:38;10.40;99.90
8408;DHT22;4241;48.452;9.216;2023-03-31T04:06:05;10.40;99.90
8408;DHT22;4241;48.452;9.216;2023-03-31T04:08:32;10.30;99.90
8408;DHT22;4241;48.452;9.216;2023-03-31T04:10:59;10.30;99.90
8408;DHT22;4241;48.452;9.216;2023-03-31T04:13:26;10.40;99.90
8408;DHT22;4241;48.452;9.216;2023-03-31T04:15:53;10.60;99.90
8408;DHT22;4241;48.452;9.216;2023-03-31T04:18:21;10.30;99.90
8408;DHT22;4241;48.452;9.216;2023-03-31T04:20:48;10.40;99.90
8408;DHT22;4241;48.452;9.216;2023-03-31T04:23:20;10.60;99.90
8408;DHT22;4241;48.452;9.216;2023-03-31T04:25:49;10.30;99.90
8408;DHT22;4241;48.452;9.216;2023-03-31T04:28:16;10.30;99.90
8408;DHT22;4241;48.452;9.216;2023-03-31T04:30:43;10.30;99.90
8408;DHT22;4241;48.452;9.216;2023-03-31T04:33:09;10.60;99.90
8408;DHT22;4241;48.452;9.216;2023-03-31T04:35:41;10.50;99.90
8408;DHT22;4241;48.452;9.216;2023-03-31T04:38:13;10.60;99.90
8408;DHT22;4241;48.452;9.216;2023-03-31T04:40:43;10.60;99.90
8408;DHT22;4241;48.452;9.216;2023-03-31T04:43:10;10.60;99.90
8408;DHT22;4241;48.452;9.216;2023-03-31T04:45:37;10.70;99.90
8408;DHT22;4241;48.452;9.216;2023-03-31T04:48:04;10.60;99.90
8408;DHT22;4241;48.452;9.216;2023-03-31T04:50:31;10.60;99.90
8408;DHT22;4241;48.452;9.216;2023-03-31T04:52:59;10.90;99.90
8408;DHT22;4241;48.452;9.216;2023-03-31T04:55:26;10.70;99.90
8408;DHT22;4241;48.452;9.216;2023-03-31T04:57:53;10.70;99.90
8408;DHT22;4241;48.452;9.216;2023-03-31T05:00:21;10.80;99.90
8408;DHT22;4241;48.452;9.216;2023-03-31T05:02:48;10.80;99.90
8408;DHT22;4241;48.452;9.216;2023-03-31T05:05:16;10.80;99.90
8408;DHT22;4241;48.452;9.216;2023-03-31T05:07:42;10.80;99.90
8408;DHT22;4241;48.452;9.216;2023-03-31T05:10:11;10.70;99.90
8408;DHT22;4241;48.452;9.216;2023-03-31T05:12:38;10.90;99.90
8408;DHT22;4241;48.452;9.216;2023-03-31T05:15:06;10.80;99.90
8408;DHT22;4241;48.452;9.216;2023-03-31T05:17:34;10.60;99.90
8408;DHT22;4241;48.452;9.216;2023-03-31T05:20:03;10.70;99.90
8408;DHT22;4241;48.452;9.216;2023-03-31T05:22:34;10.50;99.90
8408;DHT22;4241;48.452;9.216;2023-03-31T05:25:01;10.50;99.90
8408;DHT22;4241;48.452;9.216;2023-03-31T05:27:29;10.40;99.90
8408;DHT22;4241;48.452;9.216;2023-03-31T05:29:56;10.40;99.90
8408;DHT22;4241;48.452;9.216;2023-03-31T05:32:24;10.60;99.90
8408;DHT22;4241;48.452;9.216;2023-03-31T05:34:51;10.30;99.90
8408;DHT22;4241;48.452;9.216;2023-03-31T05:37:22;10.60;99.90
8408;DHT22;4241;48.452;9.216;2023-03-31T05:39:49;10.50;99.90
8408;DHT22;4241;48.452;9.216;2023-03-31T05:42:17;10.50;99.90
8408;DHT22;4241;48.452;9.216;2023-03-31T05:44:45;10.60;99.90
8408;DHT22;4241;48.452;9.216;2023-03-31T05:47:12;10.50;99.90
8408;DHT22;4241;48.452;9.216;2023-03-31T05:49:40;10.60;99.90
8408;DHT22;4241;48.452;9.216;2023-03-31T05:52:07;10.20;99.90
8408;DHT22;4241;48.452;9.216;2023-03-31T05:54:34;10.70;99.90
8408;DHT22;4241;48.452;9.216;2023-03-31T05:57:01;10.40;99.90
8408;DHT22;4241;48.452;9.216;2023-03-31T05:59:28;10.20;99.90
8408;DHT22;4241;48.452;9.216;2023-03-31T06:01:56;10.40;99.90
8408;DHT22;4241;48.452;9.216;2023-03-31T06:04:23;10.50;99.90
8408;DHT22;4241;48.452;9.216;2023-03-31T06:06:50;10.40;99.90
8408;DHT22;4241;48.452;9.216;2023-03-31T06:09:18;10.30;99.90
8408;DHT22;4241;48.452;9.216;2023-03-31T06:11:45;10.40;99.90
8408;DHT22;4241;48.452;9.216;2023-03-31T06:14:13;9.70;99.90
8408;DHT22;4241;48.452;9.216;2023-03-31T06:16:39;10.40;99.90
8408;DHT22;4241;48.452;9.216;2023-03-31T06:19:08;10.50;99.90
8408;DHT22;4241;48.452;9.216;2023-03-31T06:21:34;10.60;99.90
8408;DHT22;4241;48.452;9.216;2023-03-31T06:24:01;10.40;99.90
8408;DHT22;4241;48.452;9.216;2023-03-31T06:26:28;10.30;99.90
8408;DHT22;4241;48.452;9.216;2023-03-31T06:28:55;10.50;99.90
8408;DHT22;4241;48.452;9.216;2023-03-31T06:31:23;10.80;99.90
8408;DHT22;4241;48.452;9.216;2023-03-31T06:33:51;10.80;99.90
8408;DHT22;4241;48.452;9.216;2023-03-31T06:36:20;10.60;99.90
8408;DHT22;4241;48.452;9.216;2023-03-31T06:38:47;10.70;99.90
8408;DHT22;4241;48.452;9.216;2023-03-31T06:41:16;10.60;99.90
8408;DHT22;4241;48.452;9.216;2023-03-31T06:43:45;10.80;99.90
8408;DHT22;4241;48.452;9.216;2023-03-31T06:46:12;10.60;99.90
8408;DHT22;4241;48.452;9.216;2023-03-31T06:48:39;10.70;99.90
8408;DHT22;4241;48.452;9.216;2023-03-31T06:51:07;10.50;99.90
8408;DHT22;4241;48.452;9.216;2023-03-31T06:53:35;10.60;99.90
8408;DHT22;4241;48.452;9.216;2023-03-31T06:56:03;10.70;99.90
8408;DHT22;4241;48.452;9.216;2023-03-31T06:58:30;10.40;99.90
8408;DHT22;4241;48.452;9.216;2023-03-31T07:00:57;10.40;99.90
8408;DHT22;4241;48.452;9.216;2023-03-31T07:03:24;9.90;99.90
8408;DHT22;4241;48.452;9.216;2023-03-31T07:05:52;9.70;99.90
8408;DHT22;4241;48.452;9.216;2023-03-31T07:08:20;9.60;99.90
8408;DHT22;4241;48.452;9.216;2023-03-31T07:10:52;9.30;99.90
8408;DHT22;4241;48.452;9.216;2023-03-31T07:13:19;9.50;99.90
8408;DHT22;4241;48.452;9.216;2023-03-31T07:15:47;9.30;99.90
8408;DHT22;4241;48.452;9.216;2023-03-31T07:18:14;9.10;99.90
8408;DHT22;4241;48.452;9.216;2023-03-31T07:20:41;9.30;99.90
8408;DHT22;4241;48.452;9.216;2023-03-31T07:23:08;9.20;99.90
8408;DHT22;4241;48.452;9.216;2023-03-31T07:25:35;9.20;99.90
8408;DHT22;4241;48.452;9.216;2023-03-31T07:28:04;9.20;99.90
8408;DHT22;4241;48.452;9.216;2023-03-31T07:30:31;9.20;99.90
8408;DHT22;4241;48.452;9.216;2023-03-31T07:32:58;9.10;99.90
8408;DHT22;4241;48.452;9.216;2023-03-31T07:35:25;9.30;99.90
8408;DHT22;4241;48.452;9.216;2023-03-31T07:37:52;9.10;99.90
8408;DHT22;4241;48.452;9.216;2023-03-31T07:40:22;9.30;99.90
8408;DHT22;4241;48.452;9.216;2023-03-31T07:42:49;9.70;99.90
8408;DHT22;4241;48.452;9.216;2023-03-31T07:45:18;9.70;99.90
8408;DHT22;4241;48.452;9.216;2023-03-31T07:47:45;9.60;99.90
8408;DHT22;4241;48.452;9.216;2023-03-31T07:50:13;9.60;99.90
8408;DHT22;4241;48.452;9.216;2023-03-31T07:52:41;9.80;99.90
8408;DHT22;4241;48.452;9.216;2023-03-31T07:55:08;9.90;99.90
8408;DHT22;4241;48.452;9.216;2023-03-31T07:57:36;10.00;99.90
8408;DHT22;4241;48.452;9.216;2023-03-31T08:00:05;10.20;99.90
8408;DHT22;4241;48.452;9.216;2023-03-31T08:02:35;10.20;99.90
8408;DHT22;4241;48.452;9.216;2023-03-31T08:05:02;10.40;99.90
8408;DHT22;4241;48.452;9.216;2023-03-31T08:07:32;10.40;99.90
8408;DHT22;4241;48.452;9.216;2023-03-31T08:09:59;10.40;99.90
8408;DHT22;4241;48.452;9.216;2023-03-31T08:12:26;10.60;99.90
8408;DHT22;4241;48.452;9.216;2023-03-31T08:14:52;10.90;99.90
8408;DHT22;4241;48.452;9.216;2023-03-31T08:17:19;11.10;99.90
8408;DHT22;4241;48.452;9.216;2023-03-31T08:19:47;11.30;99.90
8408;DHT22;4241;48.452;9.216;2023-03-31T08:22:16;11.50;99.90
8408;DHT22;4241;48.452;9.216;2023-03-31T08:24:43;11.50;99.90
8408;DHT22;4241;48.452;9.216;2023-03-31T08:27:10;11.80;99.90
8408;DHT22;4241;48.452;9.216;2023-03-31T08:29:37;11.70;99.90
8408;DHT22;4241;48.452;9.216;2023-03-31T08:32:04;11.90;99.90
8408;DHT22;4241;48.452;9.216;2023-03-31T08:34:31;12.10;99.90
8408;DHT22;4241;48.452;9.216;2023-03-31T08:36:59;12.30;99.90
8408;DHT22;4241;48.452;9.216;2023-03-31T08:39:26;12.40;99.90
8408;DHT22;4241;48.452;9.216;2023-03-31T08:41:56;12.60;99.90
8408;DHT22;4241;48.452;9.216;2023-03-31T08:44:28;12.60;99.90
8408;DHT22;4241;48.452;9.216;2023-03-31T08:46:58;12.70;99.90
8408;DHT22;4241;48.452;9.216;2023-03-31T08:49:25;12.70;99.90
8408;DHT22;4241;48.452;9.216;2023-03-31T08:51:56;12.90;99.90
8408;DHT22;4241;48.452;9.216;2023-03-31T08:54:31;13.00;99.90
8408;DHT22;4241;48.452;9.216;2023-03-31T08:56:59;13.00;99.90
8408;DHT22;4241;48.452;9.216;2023-03-31T08:59:29;13.10;99.90
8408;DHT22;4241;48.452;9.216;2023-03-31T09:02:02;13.20;99.90
8408;DHT22;4241;48.452;9.216;2023-03-31T09:07:42;13.10;99.90
8408;DHT22;4241;48.452;9.216;2023-03-31T09:10:37;13.00;99.90
8408;DHT22;4241;48.452;9.216;2023-03-31T09:13:23;13.20;99.90
8408;DHT22;4241;48.452;9.216;2023-03-31T09:15:59;13.50;99.90
8408;DHT22;4241;48.452;9.216;2023-03-31T09:18:30;13.20;99.90
8408;DHT22;4241;48.452;9.216;2023-03-31T09:21:03;13.10;99.90
8408;DHT22;4241;48.452;9.216;2023-03-31T09:23:35;13.20;99.90
8408;DHT22;4241;48.452;9.216;2023-03-31T09:26:14;12.90;99.90
8408;DHT22;4241;48.452;9.216;2023-03-31T09:28:44;13.00;99.90
8408;DHT22;4241;48.452;9.216;2023-03-31T09:31:14;13.20;99.90
8408;DHT22;4241;48.452;9.216;2023-03-31T09:33:45;13.70;99.90
8408;DHT22;4241;48.452;9.216;2023-03-31T09:36:15;13.90;99.90
8408;DHT22;4241;48.452;9.216;2023-03-31T09:38:43;14.30;99.90
8408;DHT22;4241;48.452;9.216;2023-03-31T09:41:14;14.10;99.90
8408;DHT22;4241;48.452;9.216;2023-03-31T09:43:42;14.10;99.90
8408;DHT22;4241;48.452;9.216;2023-03-31T09:46:15;14.50;99.90
8408;DHT22;4241;48.452;9.216;2023-03-31T09:48:51;14.50;99.90
8408;DHT22;4241;48.452;9.216;2023-03-31T09:51:24;14.30;99.90
8408;DHT22;4241;48.452;9.216;2023-03-31T09:53:57;14.30;99.90
8408;DHT22;4241;48.452;9.216;2023-03-31T09:56:43;14.60;99.90
8408;DHT22;4241;48.452;9.216;2023-03-31T09:59:14;14.60;99.90
8408;DHT22;4241;48.452;9.216;2023-03-31T10:01:43;14.50;99.90
8408;DHT22;4241;48.452;9.216;2023-03-31T10:04:18;14.80;99.90
8408;DHT22;4241;48.452;9.216;2023-03-31T10:06:47;14.70;99.90
8408;DHT22;4241;48.452;9.216;2023-03-31T10:09:14;14.90;99.90
8408;DHT22;4241;48.452;9.216;2023-03-31T10:11:54;15.00;99.90
8408;DHT22;4241;48.452;9.216;2023-03-31T10:14:25;15.20;99.90
8408;DHT22;4241;48.452;9.216;2023-03-31T10:16:54;14.80;99.90
8408;DHT22;4241;48.452;9.216;2023-03-31T10:19:22;14.90;99.90
8408;DHT22;4241;48.452;9.216;2023-03-31T10:21:56;14.90;99.90
8408;DHT22;4241;48.452;9.216;2023-03-31T10:24:23;15.00;99.90
8408;DHT22;4241;48.452;9.216;2023-03-31T10:26:54;15.00;99.90
8408;DHT22;4241;48.452;9.216;2023-03-31T10:29:28;15.00;99.90
8408;DHT22;4241;48.452;9.216;2023-03-31T10:32:01;15.10;99.90
8408;DHT22;4241;48.452;9.216;2023-03-31T10:34:29;15.20;99.90
8408;DHT22;4241;48.452;9.216;2023-03-31T10:36:56;15.20;98.90
8408;DHT22;4241;48.452;9.216;2023-03-31T10:39:29;14.90;97.40
8408;DHT22;4241;48.452;9.216;2023-03-31T10:41:58;15.00;99.90
8408;DHT22;4241;48.452;9.216;2023-03-31T10:44:33;15.10;99.20
8408;DHT22;4241;48.452;9.216;2023-03-31T10:47:08;15.30;99.40
8408;DHT22;4241;48.452;9.216;2023-03-31T10:49:43;15.20;97.60
8408;DHT22;4241;48.452;9.216;2023-03-31T10:52:16;15.30;97.90
8408;DHT22;4241;48.452;9.216;2023-03-31T10:54:48;15.30;95.70
8408;DHT22;4241;48.452;9.216;2023-03-31T10:57:17;15.50;98.60
8408;DHT22;4241;48.452;9.216;2023-03-31T10:59:58;15.80;98.20
8408;DHT22;4241;48.452;9.216;2023-03-31T11:05:32;15.60;98.00
8408;DHT22;4241;48.452;9.216;2023-03-31T11:08:15;15.90;94.60
8408;DHT22;4241;48.452;9.216;2023-03-31T11:11:07;15.60;90.40
8408;DHT22;4241;48.452;9.216;2023-03-31T11:13:45;15.60;92.60
8408;DHT22;4241;48.452;9.216;2023-03-31T11:16:17;15.40;92.50
8408;DHT22;4241;48.452;9.216;2023-03-31T11:19:12;15.50;91.10
8408;DHT22;4241;48.452;9.216;2023-03-31T11:21:49;15.70;90.40
8408;DHT22;4241;48.452;9.216;2023-03-31T11:24:28;15.60;89.10
8408;DHT22;4241;48.452;9.216;2023-03-31T11:27:03;15.20;88.00
8408;DHT22;4241;48.452;9.216;2023-03-31T11:29:37;14.10;97.50
8408;DHT22;4241;48.452;9.216;2023-03-31T11:32:32;11.60;99.90
8408;DHT22;4241;48.452;9.216;2023-03-31T11:35:18;10.00;99.90
8408;DHT22;4241;48.452;9.216;2023-03-31T11:37:56;9.20;99.90
8408;DHT22;4241;48.452;9.216;2023-03-31T11:40:37;9.00;99.90
8408;DHT22;4241;48.452;9.216;2023-03-31T11:43:10;8.70;99.90
8408;DHT22;4241;48.452;9.216;2023-03-31T11:45:41;8.50;99.90
8408;DHT22;4241;48.452;9.216;2023-03-31T11:48:17;8.50;99.90
8408;DHT22;4241;48.452;9.216;2023-03-31T11:50:48;8.40;99.90
8408;DHT22;4241;48.452;9.216;2023-03-31T11:53:17;8.50;99.90
8408;DHT22;4241;48.452;9.216;2023-03-31T11:55:47;8.30;99.90
8408;DHT22;4241;48.452;9.216;2023-03-31T11:58:19;8.40;99.90
8408;DHT22;4241;48.452;9.216;2023-03-31T12:00:51;8.70;99.90
8408;DHT22;4241;48.452;9.216;2023-03-31T12:03:20;8.80;99.90
8408;DHT22;4241;48.452;9.216;2023-03-31T12:05:50;8.80;99.90
8408;DHT22;4241;48.452;9.216;2023-03-31T12:08:25;8.80;99.90
8408;DHT22;4241;48.452;9.216;2023-03-31T12:10:59;8.90;99.90
8408;DHT22;4241;48.452;9.216;2023-03-31T12:13:38;8.70;99.90
8408;DHT22;4241;48.452;9.216;2023-03-31T12:16:11;8.70;99.90
8408;DHT22;4241;48.452;9.216;2023-03-31T12:18:43;8.70;99.90
8408;DHT22;4241;48.452;9.216;2023-03-31T12:21:12;8.90;99.90
8408;DHT22;4241;48.452;9.216;2023-03-31T12:23:42;8.80;99.90
8408;DHT22;4241;48.452;9.216;2023-03-31T12:26:17;8.80;99.90
8408;DHT22;4241;48.452;9.216;2023-03-31T12:28:50;9.10;99.90
8408;DHT22;4241;48.452;9.216;2023-03-31T12:31:23;9.20;99.90
8408;DHT22;4241;48.452;9.216;2023-03-31T12:33:54;9.50;99.90
8408;DHT22;4241;48.452;9.216;2023-03-31T12:39:17;10.30;99.90
8408;DHT22;4241;48.452;9.216;2023-03-31T12:42:00;10.70;99.90
8408;DHT22;4241;48.452;9.216;2023-03-31T12:44:37;11.00;99.90
8408;DHT22;4241;48.452;9.216;2023-03-31T12:47:33;11.40;99.90
8408;DHT22;4241;48.452;9.216;2023-03-31T12:50:23;12.50;99.90
8408;DHT22;4241;48.452;9.216;2023-03-31T12:52:58;11.90;99.90
8408;DHT22;4241;48.452;9.216;2023-03-31T12:55:35;12.10;99.90
8408;DHT22;4241;48.452;9.216;2023-03-31T12:58:35;12.20;99.90
8408;DHT22;4241;48.452;9.216;2023-03-31T13:01:05;12.30;99.90
8408;DHT22;4241;48.452;9.216;2023-03-31T13:03:45;12.20;99.90
8408;DHT22;4241;48.452;9.216;2023-03-31T13:09:37;12.40;99.90
8408;DHT22;4241;48.452;9.216;2023-03-31T13:12:06;12.40;99.90
8408;DHT22;4241;48.452;9.216;2023-03-31T13:14:36;12.60;99.90
8408;DHT22;4241;48.452;9.216;2023-03-31T13:17:12;12.70;99.90
8408;DHT22;4241;48.452;9.216;2023-03-31T13:19:41;12.60;99.90
8408;DHT22;4241;48.452;9.216;2023-03-31T13:22:30;12.60;99.90
8408;DHT22;4241;48.452;9.216;2023-03-31T13:25:29;12.60;99.90
8408;DHT22;4241;48.452;9.216;2023-03-31T13:28:08;12.80;99.90
8408;DHT22;4241;48.452;9.216;2023-03-31T13:30:51;13.10;99.90
8408;DHT22;4241;48.452;9.216;2023-03-31T13:33:22;13.10;99.90
8408;DHT22;4241;48.452;9.216;2023-03-31T13:35:56;13.30;99.90
8408;DHT22;4241;48.452;9.216;2023-03-31T13:38:40;13.30;99.90
8408;DHT22;4241;48.452;9.216;2023-03-31T13:41:21;13.20;99.90
8408;DHT22;4241;48.452;9.216;2023-03-31T13:47:16;12.90;99.90
8408;DHT22;4241;48.452;9.216;2023-03-31T13:50:02;12.70;99.90
8408;DHT22;4241;48.452;9.216;2023-03-31T13:52:46;12.50;99.90
8408;DHT22;4241;48.452;9.216;2023-03-31T13:58:37;12.20;99.90
8408;DHT22;4241;48.452;9.216;2023-03-31T14:01:30;11.70;99.90
8408;DHT22;4241;48.452;9.216;2023-03-31T14:04:12;11.40;99.90
8408;DHT22;4241;48.452;9.216;2023-03-31T14:06:44;11.30;99.90
8408;DHT22;4241;48.452;9.216;2023-03-31T14:09:19;10.80;99.90
8408;DHT22;4241;48.452;9.216;2023-03-31T14:11:47;10.70;99.90
8408;DHT22;4241;48.452;9.216;2023-03-31T14:14:16;10.90;99.90
8408;DHT22;4241;48.452;9.216;2023-03-31T14:16:45;10.80;99.90
8408;DHT22;4241;48.452;9.216;2023-03-31T14:19:39;10.60;99.90
8408;DHT22;4241;48.452;9.216;2023-03-31T14:22:15;10.70;99.90
8408;DHT22;4241;48.452;9.216;2023-03-31T14:24:50;10.50;99.90
8408;DHT22;4241;48.452;9.216;2023-03-31T14:27:36;10.40;99.90
8408;DHT22;4241;48.452;9.216;2023-03-31T14:30:11;10.40;99.90
8408;DHT22;4241;48.452;9.216;2023-03-31T14:32:46;10.40;99.90
8408;DHT22;4241;48.452;9.216;2023-03-31T14:35:27;10.40;99.90
8408;DHT22;4241;48.452;9.216;2023-03-31T14:37:56;10.50;99.90
8408;DHT22;4241;48.452;9.216;2023-03-31T14:40:27;10.60;99.90
8408;DHT22;4241;48.452;9.216;2023-03-31T14:42:53;10.60;99.90
8408;DHT22;4241;48.452;9.216;2023-03-31T14:45:22;10.60;99.90
8408;DHT22;4241;48.452;9.216;2023-03-31T14:47:53;10.40;99.90
8408;DHT22;4241;48.452;9.216;2023-03-31T14:50:21;10.40;99.90
8408;DHT22;4241;48.452;9.216;2023-03-31T14:52:53;10.30;99.90
8408;DHT22;4241;48.452;9.216;2023-03-31T14:55:22;10.20;99.90
8408;DHT22;4241;48.452;9.216;2023-03-31T14:57:51;10.10;99.90
8408;DHT22;4241;48.452;9.216;2023-03-31T15:00:23;10.00;99.90
8408;DHT22;4241;48.452;9.216;2023-03-31T15:02:50;10.30;99.90
8408;DHT22;4241;48.452;9.216;2023-03-31T15:05:24;10.50;99.90
8408;DHT22;4241;48.452;9.216;2023-03-31T15:07:51;10.60;99.90
8408;DHT22;4241;48.452;9.216;2023-03-31T15:10:22;10.70;99.90
8408;DHT22;4241;48.452;9.216;2023-03-31T15:12:50;10.80;99.90
8408;DHT22;4241;48.452;9.216;2023-03-31T15:15:19;10.90;99.90
8408;DHT22;4241;48.452;9.216;2023-03-31T15:17:46;10.70;99.90
8408;DHT22;4241;48.452;9.216;2023-03-31T15:20:28;10.90;99.90
8408;DHT22;4241;48.452;9.216;2023-03-31T15:22:57;11.00;99.90
8408;DHT22;4241;48.452;9.216;2023-03-31T15:25:26;11.20;99.90
8408;DHT22;4241;48.452;9.216;2023-03-31T15:27:58;11.10;99.90
8408;DHT22;4241;48.452;9.216;2023-03-31T15:30:28;11.20;99.90
8408;DHT22;4241;48.452;9.216;2023-03-31T15:32:55;11.20;99.90
8408;DHT22;4241;48.452;9.216;2023-03-31T15:35:26;11.40;99.90
8408;DHT22;4241;48.452;9.216;2023-03-31T15:37:55;11.30;99.90
8408;DHT22;4241;48.452;9.216;2023-03-31T15:40:25;11.40;99.90
8408;DHT22;4241;48.452;9.216;2023-03-31T15:42:56;11.20;99.90
8408;DHT22;4241;48.452;9.216;2023-03-31T15:45:48;11.20;99.90
8408;DHT22;4241;48.452;9.216;2023-03-31T15:48:18;11.00;99.90
8408;DHT22;4241;48.452;9.216;2023-03-31T15:50:46;11.20;99.90
8408;DHT22;4241;48.452;9.216;2023-03-31T15:53:28;10.80;99.90
8408;DHT22;4241;48.452;9.216;2023-03-31T15:55:56;10.70;99.90
8408;DHT22;4241;48.452;9.216;2023-03-31T16:01:32;10.60;99.90
8408;DHT22;4241;48.452;9.216;2023-03-31T16:04:00;10.50;99.90
8408;DHT22;4241;48.452;9.216;2023-03-31T16:06:40;10.50;99.90
8408;DHT22;4241;48.452;9.216;2023-03-31T16:09:11;10.40;99.90
8408;DHT22;4241;48.452;9.216;2023-03-31T16:11:42;10.50;99.90
8408;DHT22;4241;48.452;9.216;2023-03-31T16:14:14;10.50;99.90
8408;DHT22;4241;48.452;9.216;2023-03-31T16:16:50;10.50;99.90
8408;DHT22;4241;48.452;9.216;2023-03-31T16:19:19;10.60;99.90
8408;DHT22;4241;48.452;9.216;2023-03-31T16:21:50;10.60;99.90
8408;DHT22;4241;48.452;9.216;2023-03-31T16:24:19;10.70;99.90
8408;DHT22;4241;48.452;9.216;2023-03-31T16:26:47;10.60;99.90
8408;DHT22;4241;48.452;9.216;2023-03-31T16:29:19;10.50;99.90
8408;DHT22;4241;48.452;9.216;2023-03-31T16:31:48;10.50;99.90
8408;DHT22;4241;48.452;9.216;2023-03-31T16:34:15;10.70;99.90
8408;DHT22;4241;48.452;9.216;2023-03-31T16:36:41;10.70;99.90
8408;DHT22;4241;48.452;9.216;2023-03-31T16:39:08;10.50;99.90
8408;DHT22;4241;48.452;9.216;2023-03-31T16:41:36;10.50;99.90
8408;DHT22;4241;48.452;9.216;2023-03-31T16:44:03;10.40;99.90
8408;DHT22;4241;48.452;9.216;2023-03-31T16:46:31;10.30;99.90
8408;DHT22;4241;48.452;9.216;2023-03-31T16:48:59;9.90;99.90
8408;DHT22;4241;48.452;9.216;2023-03-31T16:51:26;9.90;99.90
8408;DHT22;4241;48.452;9.216;2023-03-31T16:53:52;9.80;99.90
8408;DHT22;4241;48.452;9.216;2023-03-31T16:56:19;9.60;99.90
8408;DHT22;4241;48.452;9.216;2023-03-31T16:58:47;9.40;99.90
8408;DHT22;4241;48.452;9.216;2023-03-31T17:01:14;9.30;99.90